Time;durP1;ratioP1;P1;durP2;ratioP2;P2;SDS_P1;SDS_P2;PMS_P1;PMS_P2;Temp;Humidity;BMP_temperature;BMP_pressure;BME280_temperature;BME280_humidity;BME280_pressure;Samples;Min_cycle;Max_cycle;Signal;HPM_P1;HPM_P2
2021/10/26 00:01:47;;;;;;;5.00;4.10;;;9.60;99.90;;;;;;5011292;28;20239;-71
2021/10/26 00:04:13;;;;;;;5.00;3.30;;;9.60;99.90;;;;;;5020218;28;20231;-71
2021/10/26 00:06:39;;;;;;;6.13;3.73;;;9.60;99.90;;;;;;5007530;28;20225;-71
2021/10/26 00:09:05;;;;;;;5.47;4.30;;;9.60;99.90;;;;;;4996475;28;20232;-73
2021/10/26 00:11:32;;;;;;;3.50;3.13;;;9.70;99.90;;;;;;5034626;28;20449;-71
2021/10/26 00:13:58;;;;;;;3.70;3.30;;;9.70;99.90;;;;;;5007376;28;20481;-72
2021/10/26 00:16:24;;;;;;;6.13;4.10;;;9.70;99.90;;;;;;5015961;28;20450;-72
2021/10/26 00:18:50;;;;;;;5.77;4.07;;;9.80;99.90;;;;;;5018293;28;20474;-72
2021/10/26 00:21:16;;;;;;;4.80;3.90;;;9.80;99.90;;;;;;5014357;28;20233;-73
2021/10/26 00:23:43;;;;;;;4.80;3.73;;;9.80;99.90;;;;;;5004421;28;20965;-72
2021/10/26 00:26:09;;;;;;;5.10;4.17;;;9.90;99.90;;;;;;5010534;28;20506;-70
2021/10/26 00:28:36;;;;;;;5.20;3.57;;;9.90;99.90;;;;;;5016499;28;20219;-72
2021/10/26 00:31:03;;;;;;;4.17;3.77;;;9.80;99.90;;;;;;5014238;28;20457;-72
2021/10/26 00:33:30;;;;;;;4.93;4.07;;;9.90;99.90;;;;;;5030733;28;20219;-73
2021/10/26 00:35:55;;;;;;;5.77;3.80;;;9.90;99.90;;;;;;5003321;28;20883;-72
2021/10/26 00:38:22;;;;;;;5.53;3.63;;;9.90;99.90;;;;;;5030052;28;20553;-72
2021/10/26 00:40:48;;;;;;;4.47;3.80;;;9.90;99.90;;;;;;5012485;28;20228;-70
2021/10/26 00:43:14;;;;;;;4.47;3.83;;;9.90;99.90;;;;;;5005056;28;20455;-71
2021/10/26 00:45:40;;;;;;;4.80;4.30;;;10.00;99.90;;;;;;5015498;28;20463;-72
2021/10/26 00:48:06;;;;;;;7.10;4.43;;;9.90;99.90;;;;;;4993956;28;20464;-72
2021/10/26 00:50:33;;;;;;;5.43;4.70;;;10.00;99.90;;;;;;4982096;28;20244;-72
2021/10/26 00:52:58;;;;;;;6.40;4.10;;;10.00;99.90;;;;;;5018812;28;20481;-70
2021/10/26 00:55:24;;;;;;;5.73;4.63;;;10.00;99.90;;;;;;5014040;28;20701;-71
2021/10/26 00:57:51;;;;;;;7.70;4.57;;;10.00;99.90;;;;;;5002790;28;20232;-71
2021/10/26 01:00:20;;;;;;;5.00;3.90;;;10.00;99.90;;;;;;5033871;28;20552;-72
2021/10/26 01:02:46;;;;;;;5.23;4.07;;;10.00;99.90;;;;;;5035677;28;20971;-71
2021/10/26 01:05:21;;;;;;;4.23;3.73;;;10.00;99.90;;;;;;5038492;28;20445;-70
2021/10/26 01:07:47;;;;;;;9.27;5.23;;;10.00;99.90;;;;;;5025499;28;20515;-73
2021/10/26 01:10:12;;;;;;;9.90;6.60;;;10.00;99.90;;;;;;5037348;28;20318;-73
2021/10/26 01:12:41;;;;;;;9.20;6.37;;;9.90;99.90;;;;;;5017756;28;20220;-73
2021/10/26 01:15:09;;;;;;;7.80;6.70;;;9.90;99.90;;;;;;5019213;28;20471;-73
2021/10/26 01:17:35;;;;;;;10.03;6.47;;;10.00;99.90;;;;;;5031412;28;21043;-72
2021/10/26 01:20:01;;;;;;;10.40;6.50;;;10.00;99.90;;;;;;5037080;28;20477;-73
2021/10/26 01:22:29;;;;;;;9.17;6.23;;;9.90;99.90;;;;;;5031972;28;20247;-73
2021/10/26 01:24:55;;;;;;;9.90;6.80;;;10.00;99.90;;;;;;5015017;28;20461;-73
2021/10/26 01:27:23;;;;;;;9.70;7.47;;;10.00;99.90;;;;;;5019459;28;20447;-72
2021/10/26 01:29:52;;;;;;;10.87;7.00;;;10.00;99.90;;;;;;5030588;28;20972;-73
2021/10/26 01:32:18;;;;;;;11.77;7.93;;;10.00;99.90;;;;;;5017387;28;20802;-73
2021/10/26 01:34:50;;;;;;;11.13;7.47;;;9.90;99.90;;;;;;5016427;28;20455;-71
2021/10/26 01:37:16;;;;;;;13.40;7.37;;;9.90;99.90;;;;;;5039803;28;20446;-72
2021/10/26 01:39:44;;;;;;;9.07;5.97;;;10.00;99.90;;;;;;5035577;28;20520;-71
2021/10/26 01:42:11;;;;;;;7.17;5.53;;;10.00;99.90;;;;;;5036357;28;20465;-72
2021/10/26 01:44:37;;;;;;;7.03;4.80;;;9.90;99.90;;;;;;5030837;28;20539;-72
2021/10/26 01:47:10;;;;;;;6.37;4.43;;;10.00;99.90;;;;;;5013781;28;20220;-72
2021/10/26 01:49:36;;;;;;;6.13;4.13;;;10.00;99.90;;;;;;4996015;28;20813;-73
2021/10/26 01:52:02;;;;;;;5.63;5.03;;;10.00;99.90;;;;;;5013643;28;20239;-72
2021/10/26 01:54:35;;;;;;;5.00;4.50;;;10.00;99.90;;;;;;5035656;28;20215;-72
2021/10/26 01:57:00;;;;;;;5.57;4.90;;;10.00;99.90;;;;;;5035244;28;20906;-73
2021/10/26 01:59:38;;;;;;;4.27;3.87;;;10.00;99.90;;;;;;5036594;28;20449;-72
2021/10/26 02:02:04;;;;;;;3.90;3.50;;;10.00;99.90;;;;;;5040044;28;20457;-72
2021/10/26 02:04:33;;;;;;;5.03;4.00;;;10.00;99.90;;;;;;5020497;28;20512;-73
2021/10/26 02:07:00;;;;;;;4.53;3.83;;;10.00;99.90;;;;;;5022674;28;20459;-73
2021/10/26 02:09:29;;;;;;;5.50;4.33;;;10.00;99.90;;;;;;5008402;28;20479;-72
2021/10/26 02:11:56;;;;;;;4.47;4.00;;;10.00;99.90;;;;;;5030486;28;20453;-71
2021/10/26 02:14:22;;;;;;;5.50;4.13;;;10.00;99.90;;;;;;5022632;28;20455;-72
2021/10/26 02:16:48;;;;;;;3.60;3.30;;;10.00;99.90;;;;;;4995545;28;20520;-72
2021/10/26 02:19:14;;;;;;;4.60;3.87;;;10.00;99.90;;;;;;5022182;28;20244;-72
2021/10/26 02:21:41;;;;;;;5.50;4.33;;;10.00;99.90;;;;;;5015634;28;20299;-73
2021/10/26 02:24:08;;;;;;;5.07;3.90;;;10.00;99.90;;;;;;5016855;28;20458;-72
2021/10/26 02:26:36;;;;;;;4.80;3.90;;;10.00;99.90;;;;;;5011334;28;21020;-72
2021/10/26 02:29:03;;;;;;;4.97;4.10;;;10.00;99.90;;;;;;5016045;28;20830;-72
2021/10/26 02:31:29;;;;;;;5.10;3.90;;;10.00;99.90;;;;;;5015396;28;20481;-72
2021/10/26 02:33:55;;;;;;;5.60;4.13;;;10.00;99.90;;;;;;5007063;28;20443;-73
2021/10/26 02:36:21;;;;;;;6.37;4.43;;;10.00;99.90;;;;;;5016265;28;20220;-73
2021/10/26 02:38:47;;;;;;;6.13;4.30;;;10.00;99.90;;;;;;5030768;28;20228;-72
2021/10/26 02:41:13;;;;;;;5.07;3.93;;;10.00;99.90;;;;;;5031682;28;20466;-72
2021/10/26 02:43:39;;;;;;;4.20;3.83;;;10.00;99.90;;;;;;4998777;28;20228;-72
2021/10/26 02:46:06;;;;;;;3.97;3.20;;;10.00;99.90;;;;;;5017022;28;20554;-72
2021/10/26 02:48:32;;;;;;;4.53;4.00;;;10.00;99.90;;;;;;4994101;28;20362;-72
2021/10/26 02:50:58;;;;;;;3.83;3.50;;;10.00;99.90;;;;;;5011194;28;20462;-72
2021/10/26 02:53:25;;;;;;;5.17;4.00;;;10.00;99.90;;;;;;5016010;28;20983;-73
2021/10/26 02:55:51;;;;;;;5.33;3.53;;;10.00;99.90;;;;;;5014187;28;20450;-70
2021/10/26 02:58:18;;;;;;;5.37;3.67;;;10.00;99.90;;;;;;5015605;28;20532;-73
2021/10/26 03:00:45;;;;;;;8.30;4.50;;;10.00;99.90;;;;;;5030800;28;20470;-70
2021/10/26 03:03:13;;;;;;;6.90;3.43;;;10.00;99.90;;;;;;5025931;28;20884;-72
2021/10/26 03:05:39;;;;;;;4.40;3.67;;;10.00;99.90;;;;;;5002783;28;20474;-72
2021/10/26 03:08:05;;;;;;;5.27;4.30;;;10.00;99.90;;;;;;5011979;28;20470;-72
2021/10/26 03:10:30;;;;;;;4.57;3.43;;;10.00;99.90;;;;;;5016834;28;21039;-72
2021/10/26 03:12:56;;;;;;;4.00;3.33;;;10.00;99.90;;;;;;5015124;28;20226;-71
2021/10/26 03:15:22;;;;;;;5.13;4.63;;;10.00;99.90;;;;;;5003777;28;20216;-71
2021/10/26 03:17:48;;;;;;;4.00;3.60;;;10.00;99.90;;;;;;5013420;28;20227;-72
2021/10/26 03:20:19;;;;;;;4.10;3.60;;;10.00;99.90;;;;;;5016007;28;20610;-71
2021/10/26 03:22:45;;;;;;;4.60;3.47;;;10.10;99.90;;;;;;5013853;28;20472;-71
2021/10/26 03:25:11;;;;;;;6.27;4.23;;;10.10;99.90;;;;;;5014936;28;20474;-72
2021/10/26 03:27:37;;;;;;;4.50;3.43;;;10.10;99.90;;;;;;5013203;28;20489;-71
2021/10/26 03:30:07;;;;;;;6.23;3.73;;;10.10;99.90;;;;;;4996522;28;20455;-71
2021/10/26 03:32:33;;;;;;;4.60;4.10;;;10.10;99.90;;;;;;5010403;28;20455;-71
2021/10/26 03:35:31;;;;;;;6.40;4.23;;;10.10;99.90;;;;;;5015996;28;20462;-71
2021/10/26 03:37:56;;;;;;;4.87;3.53;;;10.10;99.90;;;;;;4995475;28;20451;-72
2021/10/26 03:40:22;;;;;;;6.43;4.00;;;10.20;99.90;;;;;;5022165;28;20311;-71
2021/10/26 03:42:48;;;;;;;5.63;4.40;;;10.20;99.90;;;;;;5004786;28;20266;-70
2021/10/26 03:45:13;;;;;;;6.03;4.10;;;10.10;99.90;;;;;;5012068;28;20216;-71
2021/10/26 03:47:45;;;;;;;6.90;4.00;;;10.20;99.90;;;;;;4993911;28;20693;-73
2021/10/26 03:50:13;;;;;;;5.20;3.90;;;10.20;99.90;;;;;;5011883;28;20223;-73
2021/10/26 03:52:39;;;;;;;7.50;4.00;;;10.20;99.90;;;;;;4994090;28;20466;-72
2021/10/26 03:55:06;;;;;;;6.00;4.20;;;10.20;99.90;;;;;;4995557;28;20463;-71
2021/10/26 03:57:33;;;;;;;5.50;4.60;;;10.20;99.90;;;;;;5008113;28;20512;-71
2021/10/26 04:00:00;;;;;;;7.83;5.00;;;10.30;99.90;;;;;;5011474;28;20467;-72
2021/10/26 04:02:29;;;;;;;5.60;4.30;;;10.30;99.90;;;;;;5011664;28;20455;-72
2021/10/26 04:05:02;;;;;;;4.70;4.17;;;10.30;99.90;;;;;;5014668;28;20216;-71
2021/10/26 04:07:30;;;;;;;6.97;5.17;;;10.30;99.90;;;;;;5002164;28;20447;-73
2021/10/26 04:10:07;;;;;;;5.83;4.60;;;10.30;99.90;;;;;;4994566;28;20550;-75
2021/10/26 04:12:35;;;;;;;8.30;4.40;;;10.30;99.90;;;;;;4997039;28;20524;-71
2021/10/26 04:15:03;;;;;;;7.70;5.03;;;10.30;99.90;;;;;;5019128;28;20463;-72
2021/10/26 04:17:31;;;;;;;12.63;4.80;;;10.30;99.90;;;;;;5013131;28;20537;-72
2021/10/26 04:19:59;;;;;;;6.33;5.03;;;10.30;99.90;;;;;;5041435;28;20604;-72
2021/10/26 04:22:28;;;;;;;5.30;4.20;;;10.30;99.90;;;;;;5011444;28;20251;-72
2021/10/26 04:24:54;;;;;;;5.53;4.20;;;10.30;99.90;;;;;;5004948;28;20442;-72
2021/10/26 04:27:23;;;;;;;4.50;4.10;;;10.30;99.90;;;;;;4995148;28;20502;-72
2021/10/26 04:29:50;;;;;;;4.93;3.90;;;10.40;99.90;;;;;;5005017;28;20884;-71
2021/10/26 04:32:17;;;;;;;5.67;3.73;;;10.40;99.90;;;;;;5001968;28;20530;-72
2021/10/26 04:34:46;;;;;;;9.00;4.07;;;10.40;99.90;;;;;;5009380;28;20217;-72
2021/10/26 04:37:12;;;;;;;6.40;4.37;;;10.40;99.90;;;;;;4994416;28;20497;-73
2021/10/26 04:39:40;;;;;;;4.13;3.73;;;10.40;99.90;;;;;;5003696;28;20285;-73
2021/10/26 04:42:08;;;;;;;4.13;3.67;;;10.40;99.90;;;;;;5002790;28;20486;-71
2021/10/26 04:44:35;;;;;;;5.93;3.70;;;10.40;99.90;;;;;;5001157;28;20446;-71
2021/10/26 04:47:02;;;;;;;4.73;3.93;;;10.40;99.90;;;;;;5016606;28;20447;-72
2021/10/26 04:49:28;;;;;;;5.67;3.83;;;10.40;99.90;;;;;;4997930;28;20557;-73
2021/10/26 04:51:53;;;;;;;4.17;3.77;;;10.40;99.90;;;;;;5020564;28;20439;-72
2021/10/26 04:54:19;;;;;;;6.30;3.70;;;10.50;99.90;;;;;;5030339;28;20681;-72
2021/10/26 04:56:55;;;;;;;4.10;3.40;;;10.50;99.90;;;;;;5015056;28;20243;-71
2021/10/26 04:59:40;;;;;;;5.60;3.80;;;10.50;99.90;;;;;;5007414;28;20467;-72
2021/10/26 05:02:06;;;;;;;5.03;3.30;;;10.50;99.90;;;;;;5009908;28;20479;-72
2021/10/26 05:04:37;;;;;;;4.20;3.50;;;10.50;99.90;;;;;;4994506;28;20474;-72
2021/10/26 05:07:03;;;;;;;7.60;4.33;;;10.50;99.90;;;;;;4990710;28;20531;-73
2021/10/26 05:09:28;;;;;;;3.80;3.40;;;10.50;99.90;;;;;;5007091;28;20655;-74
2021/10/26 05:11:54;;;;;;;3.17;2.87;;;10.50;99.90;;;;;;4998638;28;20456;-72
2021/10/26 05:14:20;;;;;;;5.73;4.87;;;10.50;99.90;;;;;;4997977;28;20232;-71
2021/10/26 05:17:04;;;;;;;9.60;4.73;;;10.50;99.90;;;;;;5040750;28;20653;-74
2021/10/26 05:20:14;;;;;;;6.40;5.30;;;10.50;99.90;;;;;;5059108;28;20468;-72
2021/10/26 05:23:10;;;;;;;13.97;5.93;;;10.50;99.90;;;;;;5028962;28;20450;-73
2021/10/26 05:25:58;;;;;;;8.83;5.10;;;10.50;99.90;;;;;;5010618;28;20504;-72
2021/10/26 05:28:31;;;;;;;4.93;3.80;;;10.50;99.90;;;;;;5010715;28;20450;-73
2021/10/26 05:30:57;;;;;;;5.43;4.60;;;10.50;99.90;;;;;;5031565;28;20461;-73
2021/10/26 05:33:25;;;;;;;4.47;3.70;;;10.50;99.90;;;;;;5015519;28;20219;-72
2021/10/26 05:35:50;;;;;;;5.80;3.87;;;10.50;99.90;;;;;;4999342;28;20443;-71
2021/10/26 05:38:16;;;;;;;4.70;4.00;;;10.60;99.90;;;;;;5008089;28;20637;-73
2021/10/26 05:40:42;;;;;;;4.77;4.30;;;10.50;99.90;;;;;;4993652;28;20733;-73
2021/10/26 05:43:08;;;;;;;4.07;3.67;;;10.50;99.90;;;;;;5002076;28;20231;-73
2021/10/26 05:45:34;;;;;;;4.27;3.50;;;10.60;99.90;;;;;;5020075;28;20529;-73
2021/10/26 05:48:00;;;;;;;10.47;7.30;;;10.60;99.90;;;;;;5001127;28;20519;-72
2021/10/26 05:50:25;;;;;;;13.77;7.10;;;10.60;99.90;;;;;;4995737;28;20229;-73
2021/10/26 05:52:51;;;;;;;10.53;8.27;;;10.60;99.90;;;;;;5015063;28;20661;-73
2021/10/26 05:55:17;;;;;;;9.70;8.70;;;10.60;99.90;;;;;;5018654;28;20458;-73
2021/10/26 05:57:43;;;;;;;10.37;9.30;;;10.60;99.90;;;;;;5023621;28;20225;-72
2021/10/26 06:00:09;;;;;;;10.83;8.10;;;10.60;99.90;;;;;;5018906;28;20612;-74
2021/10/26 06:02:37;;;;;;;11.90;7.00;;;10.60;99.90;;;;;;5026333;28;20212;-73
2021/10/26 06:05:04;;;;;;;10.10;8.20;;;10.60;99.90;;;;;;5034845;28;20439;-73
2021/10/26 06:07:30;;;;;;;16.47;10.07;;;10.60;99.90;;;;;;5030417;28;20216;-73
2021/10/26 06:09:56;;;;;;;21.20;12.17;;;10.60;99.90;;;;;;5025278;28;20466;-71
2021/10/26 06:12:28;;;;;;;27.83;17.00;;;10.60;99.90;;;;;;4999555;28;20454;-72
2021/10/26 06:14:54;;;;;;;33.13;23.20;;;10.60;99.90;;;;;;5012728;28;20434;-72
2021/10/26 06:17:20;;;;;;;41.00;27.30;;;10.60;99.90;;;;;;5055289;28;20453;-71
2021/10/26 06:19:50;;;;;;;67.67;41.07;;;10.60;99.90;;;;;;5025639;28;20308;-73
2021/10/26 06:22:16;;;;;;;50.67;33.80;;;10.60;99.90;;;;;;5038551;28;20909;-72
2021/10/26 06:24:46;;;;;;;34.83;21.63;;;10.60;99.90;;;;;;5035968;28;20218;-71
2021/10/26 06:27:11;;;;;;;18.00;11.60;;;10.70;99.90;;;;;;5015447;28;20439;-72
2021/10/26 06:29:40;;;;;;;16.97;10.83;;;10.70;99.90;;;;;;5004679;28;20493;-71
2021/10/26 06:32:27;;;;;;;15.30;10.20;;;10.70;99.90;;;;;;5019355;28;20451;-72
2021/10/26 06:34:53;;;;;;;12.20;10.07;;;10.70;99.90;;;;;;4997084;28;20447;-71
2021/10/26 06:37:21;;;;;;;11.73;8.93;;;10.70;99.90;;;;;;5001394;28;20496;-73
2021/10/26 06:39:47;;;;;;;12.07;8.40;;;10.70;99.90;;;;;;4998122;28;20462;-73
2021/10/26 06:42:12;;;;;;;15.10;11.07;;;10.70;99.90;;;;;;5028218;28;20583;-73
2021/10/26 06:44:56;;;;;;;12.73;10.10;;;10.70;99.90;;;;;;5068804;28;20631;-72
2021/10/26 06:47:54;;;;;;;9.97;7.40;;;10.70;99.90;;;;;;5026040;28;20495;-73
2021/10/26 06:50:39;;;;;;;7.73;6.93;;;10.70;99.90;;;;;;5033364;28;21029;-73
2021/10/26 06:53:24;;;;;;;10.33;7.63;;;10.70;99.90;;;;;;5045682;28;20466;-73
2021/10/26 06:56:22;;;;;;;8.73;7.37;;;10.70;99.90;;;;;;4975265;28;20573;-72
2021/10/26 06:59:07;;;;;;;9.43;6.83;;;10.70;99.90;;;;;;5008360;28;20518;-72
2021/10/26 07:02:04;;;;;;;6.93;6.20;;;10.70;99.90;;;;;;5009009;28;20524;-71
2021/10/26 07:04:46;;;;;;;8.33;6.37;;;10.70;99.90;;;;;;5010963;28;20478;-72
2021/10/26 07:07:36;;;;;;;8.70;6.10;;;10.70;99.90;;;;;;5028439;28;20804;-73
2021/10/26 07:10:09;;;;;;;9.40;5.80;;;10.70;99.90;;;;;;5036697;28;20460;-71
2021/10/26 07:12:48;;;;;;;7.13;5.43;;;10.70;99.90;;;;;;5035484;28;20457;-71
2021/10/26 07:15:15;;;;;;;6.53;5.40;;;10.70;99.90;;;;;;5018150;28;20632;-71
2021/10/26 07:17:43;;;;;;;6.60;5.20;;;10.70;99.90;;;;;;5029928;28;20507;-72
2021/10/26 07:20:12;;;;;;;7.87;5.13;;;10.80;99.90;;;;;;5032247;28;20465;-72
2021/10/26 07:22:56;;;;;;;5.87;4.83;;;10.80;99.90;;;;;;5044239;28;20461;-71
2021/10/26 07:25:41;;;;;;;9.30;5.43;;;10.80;99.90;;;;;;5056066;28;20472;-72
2021/10/26 07:28:07;;;;;;;9.57;5.50;;;10.80;99.90;;;;;;5012114;28;20462;-72
2021/10/26 07:30:34;;;;;;;9.03;5.67;;;10.80;99.90;;;;;;5015899;28;20454;-72
2021/10/26 07:33:03;;;;;;;5.43;4.80;;;10.90;99.90;;;;;;5051546;28;20219;-72
2021/10/26 07:35:37;;;;;;;5.83;4.40;;;10.90;99.90;;;;;;5041269;28;20462;-72
2021/10/26 07:38:03;;;;;;;7.83;5.37;;;11.00;99.90;;;;;;5014720;28;20461;-72
2021/10/26 07:40:29;;;;;;;6.40;4.43;;;11.10;99.90;;;;;;5025754;28;20486;-72
2021/10/26 07:43:13;;;;;;;7.60;5.17;;;11.20;99.90;;;;;;5021015;28;20848;-72
2021/10/26 07:46:05;;;;;;;10.60;5.50;;;11.20;99.90;;;;;;5027726;28;20504;-71
2021/10/26 07:48:33;;;;;;;8.07;5.10;;;11.30;99.90;;;;;;5012664;28;20458;-72
2021/10/26 07:51:00;;;;;;;8.00;6.23;;;11.30;99.90;;;;;;5004052;28;21022;-71
2021/10/26 07:53:27;;;;;;;6.27;5.10;;;11.40;99.90;;;;;;5015001;28;20220;-72
2021/10/26 07:56:01;;;;;;;7.63;5.70;;;11.40;99.90;;;;;;5012807;28;20443;-71
2021/10/26 07:58:27;;;;;;;8.00;5.90;;;11.40;99.90;;;;;;5027336;28;20513;-71
2021/10/26 08:00:54;;;;;;;8.07;5.43;;;11.60;99.90;;;;;;5024749;28;20462;-71
2021/10/26 08:03:40;;;;;;;7.17;5.07;;;11.60;99.90;;;;;;5034803;28;20276;-71
2021/10/26 08:06:07;;;;;;;5.10;4.60;;;11.60;99.90;;;;;;4994945;28;20564;-70
2021/10/26 08:08:33;;;;;;;9.80;4.40;;;11.70;99.90;;;;;;5005544;28;20502;-71
2021/10/26 08:10:59;;;;;;;5.30;4.30;;;11.70;99.90;;;;;;5014535;28;20442;-71
2021/10/26 09:19:40;;;;;;;3.40;3.10;;;13.10;99.90;;;;;;5087392;28;20460;-71
2021/10/26 09:22:08;;;;;;;5.27;3.73;;;13.20;99.90;;;;;;5086185;28;20452;-71
2021/10/26 09:24:34;;;;;;;4.20;3.43;;;13.30;99.90;;;;;;5069112;28;20457;-72
2021/10/26 09:27:05;;;;;;;3.70;3.07;;;13.40;99.90;;;;;;5085704;28;20225;-71
2021/10/26 09:29:48;;;;;;;4.23;3.40;;;13.50;99.90;;;;;;5069546;28;20520;-71
2021/10/26 09:32:16;;;;;;;4.30;3.53;;;13.60;99.90;;;;;;5076287;28;20545;-71
2021/10/26 09:34:53;;;;;;;3.43;3.13;;;13.70;99.90;;;;;;5102288;27;20456;-71
2021/10/26 09:37:20;;;;;;;3.37;3.07;;;13.90;99.90;;;;;;5086167;28;20456;-71
2021/10/26 09:39:52;;;;;;;3.20;2.70;;;14.00;99.90;;;;;;5066561;28;20461;-71
2021/10/26 09:42:19;;;;;;;4.30;3.10;;;14.00;99.90;;;;;;5082548;28;20467;-71
2021/10/26 09:44:51;;;;;;;2.93;2.63;;;14.10;99.90;;;;;;5084601;28;20849;-72
2021/10/26 09:47:24;;;;;;;3.33;2.77;;;14.20;99.90;;;;;;5069175;28;20452;-71
2021/10/26 09:49:53;;;;;;;3.17;2.90;;;14.30;99.90;;;;;;5066461;28;20461;-73
2021/10/26 09:52:22;;;;;;;4.37;3.10;;;14.30;99.90;;;;;;5065588;28;20480;-71
2021/10/26 09:55:25;;;;;;;4.73;3.17;;;14.30;99.90;;;;;;5077020;28;20445;-71
2021/10/26 09:57:59;;;;;;;5.47;3.80;;;14.40;99.90;;;;;;5084755;28;20452;-71
2021/10/26 10:00:29;;;;;;;7.50;6.30;;;14.40;99.90;;;;;;5085672;28;20848;-71
2021/10/26 10:03:05;;;;;;;5.63;5.17;;;14.30;99.90;;;;;;5076175;28;20538;-71
2021/10/26 10:05:34;;;;;;;7.00;6.30;;;14.30;99.90;;;;;;5085878;28;20459;-71
2021/10/26 10:08:22;;;;;;;9.87;8.93;;;14.30;99.90;;;;;;5104421;28;20447;-72
2021/10/26 10:11:19;;;;;;;8.00;7.30;;;14.30;99.90;;;;;;5087992;28;20505;-71
2021/10/26 10:13:56;;;;;;;7.03;6.33;;;14.30;99.90;;;;;;5076938;28;20460;-71
2021/10/26 10:16:23;;;;;;;4.07;3.77;;;14.30;99.90;;;;;;5074845;28;20455;-71
2021/10/26 10:18:50;;;;;;;3.77;3.40;;;14.30;99.90;;;;;;5074515;28;20445;-71
2021/10/26 10:21:21;;;;;;;4.20;3.80;;;14.40;99.90;;;;;;5071417;28;20614;-71
2021/10/26 10:23:47;;;;;;;3.30;3.00;;;14.40;99.90;;;;;;5087470;28;20457;-71
2021/10/26 10:26:15;;;;;;;3.50;2.50;;;14.50;99.90;;;;;;5071453;28;20820;-71
2021/10/26 10:28:46;;;;;;;3.60;3.10;;;14.70;99.90;;;;;;5070639;28;20453;-70
2021/10/26 10:31:19;;;;;;;3.97;2.90;;;14.90;99.90;;;;;;5073934;28;20864;-71
2021/10/26 10:33:48;;;;;;;2.73;2.53;;;14.90;99.90;;;;;;5073432;28;20469;-71
2021/10/26 10:36:17;;;;;;;2.77;2.57;;;14.90;99.90;;;;;;5091273;28;20565;-72
2021/10/26 10:38:44;;;;;;;3.00;2.60;;;14.90;99.90;;;;;;5073091;28;20460;-69
2021/10/26 10:41:34;;;;;;;4.13;3.73;;;14.90;99.90;;;;;;5089827;28;20448;-71
2021/10/26 10:44:19;;;;;;;4.07;3.67;;;15.00;99.90;;;;;;5072487;28;20831;-71
2021/10/26 10:46:52;;;;;;;4.83;3.53;;;15.10;99.90;;;;;;5090818;28;20538;-72
2021/10/26 10:49:24;;;;;;;6.50;5.20;;;15.10;99.90;;;;;;5074125;28;20445;-70
2021/10/26 10:51:59;;;;;;;10.60;7.30;;;15.10;99.90;;;;;;5090366;28;20477;-71
2021/10/26 10:57:25;;;;;;;11.33;8.03;;;15.20;99.90;;;;;;5092023;28;20857;-71
2021/10/26 10:59:53;;;;;;;5.67;4.47;;;15.20;99.90;;;;;;5090669;28;20455;-71
2021/10/26 11:02:32;;;;;;;3.50;3.20;;;15.30;99.90;;;;;;5073730;28;20459;-71
2021/10/26 11:04:58;;;;;;;3.97;3.13;;;15.30;99.90;;;;;;5088779;28;20456;-72
2021/10/26 11:07:44;;;;;;;4.80;4.27;;;15.40;99.90;;;;;;5090533;28;20577;-71
2021/10/26 11:10:13;;;;;;;5.90;4.60;;;15.50;99.90;;;;;;5034933;28;20461;-71
2021/10/26 11:12:39;;;;;;;12.67;8.07;;;15.70;99.90;;;;;;5076464;28;20453;-72
2021/10/26 11:15:07;;;;;;;16.00;11.93;;;15.70;99.90;;;;;;5053584;28;20445;-70
2021/10/26 11:17:35;;;;;;;11.57;8.87;;;15.80;99.90;;;;;;5063926;28;20511;-71
2021/10/26 11:20:05;;;;;;;6.30;5.20;;;15.80;99.90;;;;;;5068935;28;20446;-71
2021/10/26 11:22:52;;;;;;;3.73;3.37;;;16.00;99.90;;;;;;5069101;28;20969;-71
2021/10/26 11:25:43;;;;;;;4.03;3.73;;;16.20;99.90;;;;;;5068636;28;20481;-73
2021/10/26 11:28:18;;;;;;;3.60;3.10;;;16.20;99.90;;;;;;5050041;28;20899;-72
2021/10/26 11:30:47;;;;;;;2.67;2.43;;;16.30;99.90;;;;;;5069311;28;20469;-71
2021/10/26 11:33:23;;;;;;;2.50;2.30;;;16.40;99.90;;;;;;5058761;28;20450;-72
2021/10/26 11:36:07;;;;;;;6.60;5.03;;;16.60;99.90;;;;;;5032252;28;20447;-72
2021/10/26 11:38:42;;;;;;;3.77;2.50;;;16.60;99.90;;;;;;5051057;28;20447;-71
2021/10/26 11:41:11;;;;;;;3.87;2.63;;;16.80;99.90;;;;;;5032882;28;20481;-71
2021/10/26 11:43:46;;;;;;;2.53;2.33;;;16.80;99.90;;;;;;5031811;28;20528;-72
2021/10/26 11:46:14;;;;;;;3.17;2.97;;;17.00;99.90;;;;;;5061550;28;20443;-71
2021/10/26 11:48:47;;;;;;;3.00;2.20;;;17.10;99.90;;;;;;5069360;28;20532;-72
2021/10/26 11:51:33;;;;;;;4.33;2.40;;;17.20;99.90;;;;;;5032734;28;20471;-72
2021/10/26 11:54:14;;;;;;;2.47;2.20;;;17.20;99.90;;;;;;5048426;28;20468;-71
2021/10/26 11:56:40;;;;;;;2.27;2.07;;;17.30;99.90;;;;;;5067964;28;20532;-71
2021/10/26 11:59:14;;;;;;;2.20;2.00;;;17.20;99.90;;;;;;5061631;28;20917;-71
2021/10/26 12:01:56;;;;;;;1.90;1.80;;;17.30;99.90;;;;;;5067847;28;20461;-71
2021/10/26 12:04:22;;;;;;;3.33;2.10;;;17.30;99.90;;;;;;4175921;28;10000927;-69
2021/10/26 12:06:50;;;;;;;3.13;2.77;;;17.40;99.90;;;;;;5075065;28;20445;-71
2021/10/26 12:09:17;;;;;;;1.90;1.80;;;17.30;99.90;;;;;;5084507;28;20698;-71
2021/10/26 12:11:47;;;;;;;2.30;2.00;;;17.50;99.90;;;;;;5082261;28;20469;-71
2021/10/26 12:14:26;;;;;;;3.73;1.80;;;17.50;99.90;;;;;;5065737;28;20453;-71
2021/10/26 12:17:13;;;;;;;3.83;2.83;;;17.60;99.90;;;;;;5063315;28;20477;-71
2021/10/26 12:20:03;;;;;;;12.10;9.37;;;17.50;99.90;;;;;;5066294;28;20475;-71
2021/10/26 12:22:37;;;;;;;23.90;17.33;;;17.60;99.90;;;;;;5048741;28;20545;-70
2021/10/26 12:25:21;;;;;;;14.93;10.83;;;17.60;99.90;;;;;;5065416;28;20438;-71
2021/10/26 12:27:54;;;;;;;8.37;5.70;;;17.60;99.90;;;;;;5065601;28;20931;-72
2021/10/26 12:30:23;;;;;;;2.57;2.27;;;17.60;99.90;;;;;;5065552;28;20453;-71
2021/10/26 12:33:03;;;;;;;2.23;1.70;;;17.60;99.90;;;;;;5081885;28;20477;-71
2021/10/26 12:35:48;;;;;;;2.30;2.10;;;17.60;99.90;;;;;;5049227;28;20453;-71
2021/10/26 12:38:26;;;;;;;3.13;1.57;;;17.60;99.90;;;;;;5064301;28;20506;-71
2021/10/26 12:40:54;;;;;;;1.60;1.50;;;17.60;99.90;;;;;;5048527;28;20467;-71
2021/10/26 12:43:23;;;;;;;1.47;1.37;;;17.70;99.90;;;;;;5065297;28;20834;-71
2021/10/26 12:45:55;;;;;;;1.90;1.50;;;17.60;99.90;;;;;;5081731;28;20446;-71
2021/10/26 12:48:22;;;;;;;2.00;1.80;;;17.60;99.90;;;;;;5063216;28;20453;-73
2021/10/26 12:50:58;;;;;;;1.57;1.47;;;17.70;99.90;;;;;;5066005;28;20470;-69
2021/10/26 12:53:39;;;;;;;1.53;1.00;;;17.70;99.90;;;;;;5063730;28;20492;-71
2021/10/26 12:56:21;;;;;;;1.57;1.40;;;17.80;99.90;;;;;;5061353;28;20466;-72
2021/10/26 12:58:54;;;;;;;1.27;1.17;;;17.80;99.90;;;;;;5064348;28;20456;-73
2021/10/26 13:01:30;;;;;;;1.33;1.23;;;17.70;99.90;;;;;;5063943;28;20523;-71
2021/10/26 13:03:58;;;;;;;1.60;1.50;;;17.70;99.90;;;;;;5064224;28;20466;-72
2021/10/26 13:06:28;;;;;;;1.83;1.53;;;17.70;99.90;;;;;;5063477;28;20450;-70
2021/10/26 13:08:56;;;;;;;1.37;1.27;;;17.70;99.90;;;;;;5047524;28;20461;-71
2021/10/26 13:11:24;;;;;;;1.50;1.40;;;17.70;99.90;;;;;;5082138;28;20590;-71
2021/10/26 13:13:59;;;;;;;2.43;1.50;;;17.70;99.90;;;;;;5047562;28;20465;-71
2021/10/26 13:16:30;;;;;;;3.30;3.10;;;17.70;99.90;;;;;;5068624;28;20505;-72
2021/10/26 13:19:10;;;;;;;4.83;3.60;;;17.60;99.90;;;;;;5079316;28;20485;-71
2021/10/26 13:21:37;;;;;;;5.20;4.30;;;17.50;99.90;;;;;;5050609;28;20981;-71
2021/10/26 13:24:03;;;;;;;4.13;3.73;;;17.40;99.90;;;;;;5065803;28;20459;-72
2021/10/26 13:26:30;;;;;;;4.40;4.00;;;17.30;99.90;;;;;;5065882;28;20457;-71
2021/10/26 13:28:56;;;;;;;3.50;3.20;;;17.30;99.90;;;;;;5067639;28;20458;-73
2021/10/26 13:31:22;;;;;;;5.90;4.80;;;17.20;99.90;;;;;;5047416;28;20524;-73
2021/10/26 13:33:47;;;;;;;5.20;3.80;;;17.20;99.90;;;;;;5046933;28;20223;-71
2021/10/26 13:36:18;;;;;;;3.77;2.83;;;17.20;99.90;;;;;;5067052;28;20366;-71
2021/10/26 13:38:45;;;;;;;2.90;2.70;;;17.20;99.90;;;;;;5066614;28;20666;-70
2021/10/26 13:41:14;;;;;;;2.00;1.90;;;17.20;99.90;;;;;;5049889;28;20449;-71
2021/10/26 13:43:45;;;;;;;5.63;4.07;;;17.20;99.90;;;;;;5065975;28;20515;-70
2021/10/26 13:46:12;;;;;;;4.17;3.77;;;17.20;99.90;;;;;;5030044;28;20454;-71
2021/10/26 13:48:38;;;;;;;3.27;3.07;;;17.20;99.90;;;;;;5049503;28;20599;-71
2021/10/26 13:51:05;;;;;;;6.20;5.40;;;17.20;99.90;;;;;;5066279;28;20541;-70
2021/10/26 13:53:35;;;;;;;6.70;6.03;;;17.20;99.90;;;;;;5050620;28;20228;-73
2021/10/26 13:56:00;;;;;;;22.87;17.67;;;17.20;99.90;;;;;;5051325;28;20453;-70
2021/10/26 13:58:26;;;;;;;24.47;19.17;;;17.20;99.90;;;;;;5064407;28;20453;-71
2021/10/26 14:00:53;;;;;;;25.47;18.40;;;17.20;99.90;;;;;;5068335;28;20296;-71
2021/10/26 14:03:21;;;;;;;20.80;15.40;;;17.20;99.90;;;;;;5040703;28;20737;-70
2021/10/26 14:05:46;;;;;;;14.57;13.07;;;17.20;99.90;;;;;;5048155;28;20553;-71
2021/10/26 14:08:13;;;;;;;13.40;8.10;;;17.10;99.90;;;;;;5048704;28;20580;-71
2021/10/26 14:10:40;;;;;;;5.53;4.50;;;17.10;99.90;;;;;;5048298;28;20303;-71
2021/10/26 14:13:06;;;;;;;3.83;3.57;;;17.10;99.90;;;;;;5089632;28;20447;-72